Terminal Aerodrome Forecast
Issued by NWS

Home | Current Version | Previous Version | Graphics & Text | Print | Product List | Glossary On
Versions: 1 2 3 4 5 6 7 8 9 10 11 12 13
000
FTUS43 KFGF 252338
TAFBJI
TAF
KBJI 252338Z 2600/2624 07016KT P6SM OVC014
      TEMPO 2600/2602 3SM -RA BR OVC008
     FM261500 08014KT P6SM BKN025
     FM261700 08011KT P6SM BKN035
     FM262200 09011KT P6SM SCT100=

USA.gov is the U.S. government's official web portal to all federal, state and local government web resources and services.